Time;durP1;ratioP1;P1;durP2;ratioP2;P2;SDS_P1;SDS_P2;PMS_P1;PMS_P2;Temp;Humidity;BMP_temperature;BMP_pressure;BME280_temperature;BME280_humidity;BME280_pressure;Samples;Min_cycle;Max_cycle;Signal;HPM_P1;HPM_P2
2023/09/12 00:01:35;;;;;;;22.90;11.75;;;;;;;;;;5055766;28;20021;-66
2023/09/12 00:04:01;;;;;;;24.50;12.10;;;;;;;;;;5055701;28;20036;-65
2023/09/12 00:06:26;;;;;;;20.17;11.98;;;;;;;;;;5055825;28;20028;-67
2023/09/12 00:08:52;;;;;;;22.52;11.98;;;;;;;;;;5055588;28;20471;-65
2023/09/12 00:11:18;;;;;;;19.33;12.15;;;;;;;;;;5055417;28;20363;-64
2023/09/12 00:13:44;;;;;;;25.67;12.18;;;;;;;;;;5055573;28;20124;-65
2023/09/12 00:16:10;;;;;;;18.15;12.18;;;;;;;;;;5055374;28;20127;-65
2023/09/12 00:18:36;;;;;;;24.30;12.07;;;;;;;;;;5055515;28;20095;-65
2023/09/12 00:21:03;;;;;;;22.90;12.05;;;;;;;;;;5054158;28;20470;-67
2023/09/12 00:23:28;;;;;;;22.88;12.23;;;;;;;;;;5054892;28;20386;-65
2023/09/12 00:25:54;;;;;;;18.75;12.32;;;;;;;;;;5055117;28;20039;-65
2023/09/12 00:28:20;;;;;;;21.35;11.85;;;;;;;;;;5055409;28;20021;-65
2023/09/12 00:30:45;;;;;;;24.80;12.90;;;;;;;;;;5055225;28;20064;-65
2023/09/12 00:33:11;;;;;;;20.05;12.38;;;;;;;;;;5055214;28;20155;-64
2023/09/12 00:35:36;;;;;;;24.85;12.05;;;;;;;;;;5054847;28;20031;-64
2023/09/12 00:38:02;;;;;;;21.13;12.55;;;;;;;;;;5055263;28;20474;-67
2023/09/12 00:40:29;;;;;;;19.83;11.52;;;;;;;;;;5054904;28;20033;-64
2023/09/12 00:42:55;;;;;;;21.42;11.27;;;;;;;;;;5054963;28;20025;-64
2023/09/12 00:45:20;;;;;;;23.40;11.98;;;;;;;;;;5053708;28;20029;-64
2023/09/12 00:47:46;;;;;;;24.60;11.98;;;;;;;;;;5053615;28;20029;-64
2023/09/12 00:50:14;;;;;;;20.52;12.63;;;;;;;;;;5054748;28;20487;-64
2023/09/12 00:52:41;;;;;;;20.88;12.05;;;;;;;;;;5054900;28;20466;-64
2023/09/12 00:55:07;;;;;;;21.38;11.27;;;;;;;;;;5054669;28;20032;-64
2023/09/12 00:57:34;;;;;;;19.50;11.52;;;;;;;;;;5054054;28;20029;-64
2023/09/12 01:00:10;;;;;;;23.70;12.10;;;;;;;;;;5053247;28;20035;-66
2023/09/12 01:02:37;;;;;;;25.90;11.52;;;;;;;;;;5054711;28;20044;-64
2023/09/12 01:05:02;;;;;;;20.27;11.50;;;;;;;;;;5054715;28;20489;-64
2023/09/12 01:07:28;;;;;;;23.23;12.02;;;;;;;;;;5053334;28;20029;-65
2023/09/12 01:09:53;;;;;;;18.80;10.57;;;;;;;;;;5054255;28;20017;-64
2023/09/12 01:12:20;;;;;;;15.98;11.35;;;;;;;;;;5054443;28;20478;-66
2023/09/12 01:14:45;;;;;;;17.05;10.38;;;;;;;;;;5054357;28;20478;-64
2023/09/12 01:17:11;;;;;;;21.02;11.98;;;;;;;;;;5054514;28;20078;-64
2023/09/12 01:19:36;;;;;;;20.02;11.82;;;;;;;;;;5054259;28;20074;-64
2023/09/12 01:22:26;;;;;;;23.77;12.10;;;;;;;;;;5054023;28;20037;-64
2023/09/12 01:25:16;;;;;;;20.42;11.60;;;;;;;;;;5053829;28;20449;-66
2023/09/12 01:27:43;;;;;;;;;;;;;;;;;;5054748;28;20028;-64
2023/09/12 01:30:10;;;;;;;24.20;12.30;;;;;;;;;;5054043;28;19912;-66
2023/09/12 01:32:37;;;;;;;25.08;11.73;;;;;;;;;;5054180;28;20107;-66
2023/09/12 01:35:03;;;;;;;23.88;11.90;;;;;;;;;;5054075;28;20032;-64
2023/09/12 01:37:30;;;;;;;21.67;10.88;;;;;;;;;;5053757;28;20060;-65
2023/09/12 01:39:56;;;;;;;23.40;11.40;;;;;;;;;;5052418;28;20039;-67
2023/09/12 01:42:22;;;;;;;20.77;11.02;;;;;;;;;;5053720;28;20033;-66
2023/09/12 01:44:54;;;;;;;20.52;10.88;;;;;;;;;;5053764;28;20069;-66
2023/09/12 01:47:21;;;;;;;20.13;11.70;;;;;;;;;;5053705;28;20021;-66
2023/09/12 01:49:51;;;;;;;25.40;12.00;;;;;;;;;;5053718;28;20029;-64
2023/09/12 01:52:17;;;;;;;18.50;10.80;;;;;;;;;;5053667;28;20048;-66
2023/09/12 01:54:44;;;;;;;21.10;11.32;;;;;;;;;;5053445;28;20025;-65
2023/09/12 01:57:10;;;;;;;19.05;10.90;;;;;;;;;;5053629;28;20028;-66
2023/09/12 01:59:36;;;;;;;18.80;11.63;;;;;;;;;;5053471;28;20108;-66
2023/09/12 02:02:02;;;;;;;19.05;11.35;;;;;;;;;;5053382;28;20507;-67
2023/09/12 02:04:27;;;;;;;23.55;11.30;;;;;;;;;;5053452;28;20052;-67
2023/09/12 02:06:53;;;;;;;18.05;12.15;;;;;;;;;;5053474;28;20044;-66
2023/09/12 02:09:18;;;;;;;23.50;11.60;;;;;;;;;;5052081;28;20029;-67
2023/09/12 02:11:43;;;;;;;21.30;10.43;;;;;;;;;;5053431;28;20025;-65
2023/09/12 02:14:10;;;;;;;22.38;10.88;;;;;;;;;;5053315;28;20629;-65
2023/09/12 02:16:39;;;;;;;19.00;10.45;;;;;;;;;;5053243;28;20120;-65
2023/09/12 02:19:06;;;;;;;26.10;12.98;;;;;;;;;;5053393;28;20031;-64
2023/09/12 02:21:31;;;;;;;26.02;11.63;;;;;;;;;;5052899;28;20055;-64
2023/09/12 02:23:56;;;;;;;18.50;11.55;;;;;;;;;;5052654;28;20025;-65
2023/09/12 02:26:22;;;;;;;22.73;12.27;;;;;;;;;;5053058;28;20040;-65
2023/09/12 02:28:47;;;;;;;23.58;11.82;;;;;;;;;;5053025;28;20025;-66
2023/09/12 02:31:13;;;;;;;20.83;11.70;;;;;;;;;;5052965;28;20021;-65
2023/09/12 02:33:39;;;;;;;18.05;11.25;;;;;;;;;;5052987;28;20431;-66
2023/09/12 02:36:05;;;;;;;20.70;11.20;;;;;;;;;;5052595;28;20179;-66
2023/09/12 02:38:30;;;;;;;15.98;11.52;;;;;;;;;;5052756;28;20457;-66
2023/09/12 02:40:56;;;;;;;19.33;11.57;;;;;;;;;;5052826;28;20056;-67
2023/09/12 02:43:21;;;;;;;19.15;11.48;;;;;;;;;;5052612;28;20033;-67
2023/09/12 02:45:47;;;;;;;21.48;11.80;;;;;;;;;;5052697;28;20063;-66
2023/09/12 02:48:12;;;;;;;19.33;11.60;;;;;;;;;;5052710;28;20032;-66
2023/09/12 02:50:38;;;;;;;18.92;11.00;;;;;;;;;;5052328;28;20521;-66
2023/09/12 02:53:03;;;;;;;19.17;11.20;;;;;;;;;;5052897;28;20104;-67
2023/09/12 02:55:29;;;;;;;23.00;12.00;;;;;;;;;;5052678;28;20060;-67
2023/09/12 02:57:54;;;;;;;30.70;18.35;;;;;;;;;;5052613;28;20032;-67
2023/09/12 03:00:20;;;;;;;31.13;15.38;;;;;;;;;;5052512;28;20124;-66
2023/09/12 03:02:45;;;;;;;28.35;15.52;;;;;;;;;;5052481;28;20029;-67
2023/09/12 03:05:11;;;;;;;19.35;12.32;;;;;;;;;;5052300;28;20032;-66
2023/09/12 03:07:36;;;;;;;24.95;13.75;;;;;;;;;;5052440;28;20079;-67
2023/09/12 03:10:03;;;;;;;22.95;11.75;;;;;;;;;;5052407;28;20437;-67
2023/09/12 03:12:28;;;;;;;26.33;11.32;;;;;;;;;;5052427;28;20036;-67
2023/09/12 03:14:53;;;;;;;19.75;12.15;;;;;;;;;;5051157;28;20029;-67
2023/09/12 03:17:19;;;;;;;19.02;11.85;;;;;;;;;;5052380;28;20032;-66
2023/09/12 03:19:45;;;;;;;21.15;12.25;;;;;;;;;;5052558;28;20478;-67
2023/09/12 03:22:10;;;;;;;19.02;12.10;;;;;;;;;;5056451;28;20041;-66
2023/09/12 03:24:36;;;;;;;27.15;15.20;;;;;;;;;;5056083;28;20029;-66
2023/09/12 03:27:01;;;;;;;27.48;14.73;;;;;;;;;;5056539;28;20463;-67
2023/09/12 03:29:26;;;;;;;24.27;13.27;;;;;;;;;;5056151;28;20032;-66
2023/09/12 03:31:52;;;;;;;25.08;13.48;;;;;;;;;;5056307;28;20043;-65
2023/09/12 03:34:17;;;;;;;25.77;12.15;;;;;;;;;;5056082;28;20024;-65
2023/09/12 03:36:43;;;;;;;20.77;11.60;;;;;;;;;;5055872;28;20405;-66
2023/09/12 03:39:08;;;;;;;24.90;12.18;;;;;;;;;;5056132;28;20067;-65
2023/09/12 03:41:36;;;;;;;22.58;11.85;;;;;;;;;;5055969;28;20024;-65
2023/09/12 03:44:02;;;;;;;18.60;11.55;;;;;;;;;;5056130;28;20052;-65
2023/09/12 03:46:27;;;;;;;16.13;10.98;;;;;;;;;;5056146;28;20059;-65
2023/09/12 03:48:53;;;;;;;17.25;11.50;;;;;;;;;;5055807;28;20025;-64
2023/09/12 03:51:18;;;;;;;17.33;11.00;;;;;;;;;;5055651;28;20037;-65
2023/09/12 03:53:44;;;;;;;21.30;12.45;;;;;;;;;;5055825;28;20083;-63
2023/09/12 03:56:12;;;;;;;23.42;11.80;;;;;;;;;;5055786;28;20120;-66
2023/09/12 03:58:38;;;;;;;25.65;16.00;;;;;;;;;;5055785;28;20112;-65
2023/09/12 04:01:04;;;;;;;36.35;18.02;;;;;;;;;;5055742;28;20040;-65
2023/09/12 04:03:29;;;;;;;21.58;12.43;;;;;;;;;;5055777;28;20033;-66
2023/09/12 04:05:54;;;;;;;23.90;12.32;;;;;;;;;;5055673;28;20021;-65
2023/09/12 04:08:20;;;;;;;24.10;11.38;;;;;;;;;;5055834;28;20025;-66
2023/09/12 04:10:45;;;;;;;22.55;12.02;;;;;;;;;;5055477;28;20112;-66
2023/09/12 04:13:11;;;;;;;21.65;11.68;;;;;;;;;;5054303;28;20043;-66
2023/09/12 04:15:36;;;;;;;24.88;11.23;;;;;;;;;;5055545;28;20025;-65
2023/09/12 04:18:02;;;;;;;23.35;11.35;;;;;;;;;;5055424;28;20024;-65
2023/09/12 04:20:27;;;;;;;16.77;10.50;;;;;;;;;;5055286;28;20048;-65
2023/09/12 04:22:52;;;;;;;18.17;10.25;;;;;;;;;;5055147;28;20036;-66
2023/09/12 04:25:19;;;;;;;21.48;11.15;;;;;;;;;;5055100;28;20025;-66
2023/09/12 04:27:45;;;;;;;17.75;11.10;;;;;;;;;;5055209;28;20497;-66
2023/09/12 04:30:11;;;;;;;18.95;11.13;;;;;;;;;;5055174;28;20025;-64
2023/09/12 04:32:36;;;;;;;22.30;12.07;;;;;;;;;;5053820;28;20078;-66
2023/09/12 04:35:03;;;;;;;15.32;10.70;;;;;;;;;;5055213;28;20477;-66
2023/09/12 04:37:28;;;;;;;18.45;11.48;;;;;;;;;;5054756;28;20036;-66
2023/09/12 04:39:54;;;;;;;20.48;11.57;;;;;;;;;;5053571;28;20120;-64
2023/09/12 04:42:19;;;;;;;18.83;11.27;;;;;;;;;;5054993;28;20025;-66
2023/09/12 04:44:45;;;;;;;14.27;10.43;;;;;;;;;;5055329;28;20052;-65
2023/09/12 04:47:10;;;;;;;16.52;11.07;;;;;;;;;;5054908;28;20083;-65
2023/09/12 04:49:35;;;;;;;18.02;11.40;;;;;;;;;;5054753;28;20025;-65
2023/09/12 04:52:01;;;;;;;18.25;11.05;;;;;;;;;;5054812;28;20037;-66
2023/09/12 04:54:26;;;;;;;17.67;11.80;;;;;;;;;;5054928;28;20055;-66
2023/09/12 04:56:52;;;;;;;19.45;11.95;;;;;;;;;;5054346;28;20442;-64
2023/09/12 04:59:18;;;;;;;18.77;11.45;;;;;;;;;;5054666;28;20393;-65
2023/09/12 05:01:43;;;;;;;14.95;11.40;;;;;;;;;;5054442;28;20025;-63
2023/09/12 05:04:09;;;;;;;19.52;14.73;;;;;;;;;;5054630;28;20025;-63
2023/09/12 05:06:35;;;;;;;26.00;17.23;;;;;;;;;;5054784;28;20032;-64
2023/09/12 05:09:00;;;;;;;19.70;12.93;;;;;;;;;;5053095;28;20115;-63
2023/09/12 05:11:26;;;;;;;21.40;13.43;;;;;;;;;;5054246;28;20060;-63
2023/09/12 05:13:52;;;;;;;23.67;12.40;;;;;;;;;;5054394;28;20078;-66
2023/09/12 05:16:17;;;;;;;22.90;13.45;;;;;;;;;;5054188;28;20220;-64
2023/09/12 05:18:43;;;;;;;19.85;12.43;;;;;;;;;;5054330;28;20482;-64
2023/09/12 05:21:08;;;;;;;18.45;12.52;;;;;;;;;;5053981;28;20021;-63
2023/09/12 05:23:34;;;;;;;20.30;11.73;;;;;;;;;;5054123;28;20380;-66
2023/09/12 05:25:59;;;;;;;26.85;11.93;;;;;;;;;;5054168;28;20486;-64
2023/09/12 05:28:25;;;;;;;21.00;11.43;;;;;;;;;;5054369;28;20029;-64
2023/09/12 05:30:50;;;;;;;19.48;10.93;;;;;;;;;;5053967;28;20025;-63
2023/09/12 05:33:16;;;;;;;23.10;11.55;;;;;;;;;;5054074;28;20033;-63
2023/09/12 05:35:41;;;;;;;22.48;11.63;;;;;;;;;;5053951;28;20031;-63
2023/09/12 05:38:07;;;;;;;20.55;11.98;;;;;;;;;;5053310;28;20028;-65
2023/09/12 05:40:33;;;;;;;26.27;11.40;;;;;;;;;;5053376;28;20096;-64
2023/09/12 05:42:58;;;;;;;20.38;11.48;;;;;;;;;;5053199;28;20025;-65
2023/09/12 05:45:23;;;;;;;20.63;11.23;;;;;;;;;;5053063;28;20056;-65
2023/09/12 05:47:50;;;;;;;28.23;10.30;;;;;;;;;;5053344;28;20119;-64
2023/09/12 05:50:16;;;;;;;16.83;9.32;;;;;;;;;;5053427;28;20045;-64
2023/09/12 05:52:42;;;;;;;12.63;9.70;;;;;;;;;;5053801;28;20368;-64
2023/09/12 05:55:08;;;;;;;19.20;10.10;;;;;;;;;;5053637;28;20396;-63
2023/09/12 05:57:34;;;;;;;14.85;9.23;;;;;;;;;;5053541;28;20078;-63
2023/09/12 05:59:59;;;;;;;12.00;9.30;;;;;;;;;;5053449;28;20025;-64
2023/09/12 06:02:25;;;;;;;15.85;9.75;;;;;;;;;;5053357;28;20040;-64
2023/09/12 06:04:51;;;;;;;12.65;9.27;;;;;;;;;;5053388;28;20381;-64
2023/09/12 06:07:16;;;;;;;17.08;10.40;;;;;;;;;;5052053;28;20055;-64
2023/09/12 06:09:42;;;;;;;15.43;10.10;;;;;;;;;;5053373;28;20029;-65
2023/09/12 06:12:07;;;;;;;18.17;9.73;;;;;;;;;;5053023;28;20108;-68
2023/09/12 06:14:33;;;;;;;13.00;9.43;;;;;;;;;;5051668;28;20061;-65
2023/09/12 06:16:58;;;;;;;19.70;10.05;;;;;;;;;;5053179;28;20013;-64
2023/09/12 06:19:24;;;;;;;11.93;8.93;;;;;;;;;;5053098;28;20024;-65
2023/09/12 06:21:50;;;;;;;11.48;9.02;;;;;;;;;;5053153;28;20033;-64
2023/09/12 06:24:21;;;;;;;14.70;9.18;;;;;;;;;;5052804;28;20520;-64
2023/09/12 06:26:47;;;;;;;13.30;9.52;;;;;;;;;;5052948;28;20021;-64
2023/09/12 06:29:13;;;;;;;12.27;8.93;;;;;;;;;;5052797;28;20086;-65
2023/09/12 06:31:41;;;;;;;12.23;8.23;;;;;;;;;;5052668;28;20056;-65
2023/09/12 06:34:07;;;;;;;16.73;8.55;;;;;;;;;;5052823;28;20075;-64
2023/09/12 06:36:32;;;;;;;10.80;8.45;;;;;;;;;;5052650;28;20033;-65
2023/09/12 06:38:59;;;;;;;12.90;8.63;;;;;;;;;;5052797;28;20441;-64
2023/09/12 06:41:25;;;;;;;14.18;8.73;;;;;;;;;;5052288;28;20040;-64
2023/09/12 06:43:50;;;;;;;13.40;8.50;;;;;;;;;;5052229;28;20025;-65
2023/09/12 06:46:19;;;;;;;15.88;8.23;;;;;;;;;;5051274;28;20390;-65
2023/09/12 06:48:45;;;;;;;11.80;7.78;;;;;;;;;;5052574;28;20529;-65
2023/09/12 06:51:11;;;;;;;12.35;8.18;;;;;;;;;;5052533;28;20131;-64
2023/09/12 06:53:37;;;;;;;12.05;7.93;;;;;;;;;;5048351;28;20046;-65
2023/09/12 06:56:05;;;;;;;11.63;7.78;;;;;;;;;;5040155;28;20025;-64
2023/09/12 06:58:32;;;;;;;12.73;7.53;;;;;;;;;;5044189;28;20029;-64
2023/09/12 07:01:07;;;;;;;19.88;7.18;;;;;;;;;;5052034;28;20028;-64
2023/09/12 07:03:33;;;;;;;13.70;7.82;;;;;;;;;;5052198;28;20036;-64
2023/09/12 07:05:59;;;;;;;13.05;7.50;;;;;;;;;;5052252;28;20056;-64
2023/09/12 07:08:24;;;;;;;13.65;8.20;;;;;;;;;;5052288;28;20076;-66
2023/09/12 07:10:50;;;;;;;11.10;8.15;;;;;;;;;;5050679;28;20510;-66
2023/09/12 07:13:15;;;;;;;10.25;7.47;;;;;;;;;;5051891;28;20108;-65
2023/09/12 07:15:41;;;;;;;16.58;7.47;;;;;;;;;;5052468;28;20367;-65
2023/09/12 07:18:06;;;;;;;12.77;7.63;;;;;;;;;;5052237;28;20063;-65
2023/09/12 07:20:33;;;;;;;12.45;6.93;;;;;;;;;;5052339;28;20028;-66
2023/09/12 07:22:59;;;;;;;11.00;7.72;;;;;;;;;;5052008;28;20021;-67
2023/09/12 07:25:24;;;;;;;13.15;7.00;;;;;;;;;;5052175;28;20386;-67
2023/09/12 07:27:50;;;;;;;20.55;7.00;;;;;;;;;;5044700;28;20025;-67
2023/09/12 07:30:16;;;;;;;10.77;7.18;;;;;;;;;;5032233;28;20029;-66
2023/09/12 07:32:42;;;;;;;9.75;6.90;;;;;;;;;;5032170;28;20030;-65
2023/09/12 07:35:08;;;;;;;11.38;6.82;;;;;;;;;;5034290;28;20036;-67
2023/09/12 07:37:33;;;;;;;12.57;6.70;;;;;;;;;;5051236;28;20065;-67
2023/09/12 07:39:58;;;;;;;15.00;7.43;;;;;;;;;;5038909;28;20026;-67
2023/09/12 07:42:24;;;;;;;14.30;7.10;;;;;;;;;;5031885;28;20290;-66
2023/09/12 07:44:50;;;;;;;14.40;6.68;;;;;;;;;;5049907;28;20021;-66
2023/09/12 07:47:15;;;;;;;13.05;7.07;;;;;;;;;;5051953;28;20097;-67
2023/09/12 07:49:41;;;;;;;15.18;6.50;;;;;;;;;;5051986;28;20528;-65
2023/09/12 07:52:07;;;;;;;13.23;6.40;;;;;;;;;;5044044;28;20494;-66
2023/09/12 07:54:32;;;;;;;11.93;6.53;;;;;;;;;;5032133;28;20036;-67
2023/09/12 07:56:58;;;;;;;12.98;6.70;;;;;;;;;;5032010;28;21046;-65
2023/09/12 07:59:23;;;;;;;15.98;6.78;;;;;;;;;;5031902;28;20542;-66
2023/09/12 08:01:49;;;;;;;10.23;6.45;;;;;;;;;;5032111;28;20474;-66
2023/09/12 08:04:14;;;;;;;13.98;7.40;;;;;;;;;;5050919;28;20036;-66
2023/09/12 08:06:41;;;;;;;16.40;7.43;;;;;;;;;;5053660;28;20481;-67
2023/09/12 08:09:08;;;;;;;12.73;6.78;;;;;;;;;;5048524;28;20378;-66
2023/09/12 08:11:33;;;;;;;14.52;6.90;;;;;;;;;;5035303;28;20498;-65
2023/09/12 08:13:58;;;;;;;14.57;6.50;;;;;;;;;;5040492;28;20032;-66
2023/09/12 08:16:24;;;;;;;12.35;6.57;;;;;;;;;;5055330;28;20032;-66
2023/09/12 08:18:49;;;;;;;14.65;6.20;;;;;;;;;;5055384;28;20017;-66
2023/09/12 08:21:15;;;;;;;11.35;6.20;;;;;;;;;;5055242;28;20025;-66
2023/09/12 08:23:40;;;;;;;23.85;7.13;;;;;;;;;;5055064;28;20025;-66
2023/09/12 08:26:05;;;;;;;19.75;6.28;;;;;;;;;;5054990;28;20032;-67
2023/09/12 08:28:31;;;;;;;16.75;5.80;;;;;;;;;;5055015;28;20060;-66
2023/09/12 08:30:56;;;;;;;21.08;6.03;;;;;;;;;;5055204;28;20068;-67
2023/09/12 08:33:22;;;;;;;19.83;6.03;;;;;;;;;;5055090;28;20037;-65
2023/09/12 08:35:50;;;;;;;18.92;6.15;;;;;;;;;;5055067;28;20105;-67
2023/09/12 08:38:15;;;;;;;17.80;6.20;;;;;;;;;;5054843;28;20470;-67
2023/09/12 08:40:47;;;;;;;15.45;6.15;;;;;;;;;;5054752;28;20289;-66
2023/09/12 08:43:12;;;;;;;16.63;6.07;;;;;;;;;;5054582;28;20343;-66
2023/09/12 08:45:38;;;;;;;16.35;7.07;;;;;;;;;;5054799;28;20017;-66
2023/09/12 08:48:07;;;;;;;21.27;6.22;;;;;;;;;;5054915;28;20478;-66
2023/09/12 08:50:34;;;;;;;13.23;6.43;;;;;;;;;;5054726;28;20053;-66
2023/09/12 08:52:59;;;;;;;12.32;5.85;;;;;;;;;;5054736;28;20032;-66
2023/09/12 08:55:25;;;;;;;21.05;6.78;;;;;;;;;;5054569;28;20029;-67
2023/09/12 08:57:51;;;;;;;17.90;6.45;;;;;;;;;;5054798;28;20096;-66
2023/09/12 09:00:18;;;;;;;16.83;5.90;;;;;;;;;;5053397;28;20025;-65
2023/09/12 09:02:43;;;;;;;11.55;5.70;;;;;;;;;;5054538;28;20021;-65
2023/09/12 09:05:11;;;;;;;15.65;5.82;;;;;;;;;;5053357;28;20210;-67
2023/09/12 09:07:43;;;;;;;20.50;5.90;;;;;;;;;;5054412;28;20037;-66
2023/09/12 09:10:15;;;;;;;8.75;5.65;;;;;;;;;;5054378;28;20028;-66
2023/09/12 09:12:42;;;;;;;12.68;5.38;;;;;;;;;;5054426;28;20029;-65
2023/09/12 09:15:29;;;;;;;11.35;5.47;;;;;;;;;;5054410;28;20029;-67
2023/09/12 09:17:57;;;;;;;18.90;5.60;;;;;;;;;;5053935;28;20032;-65
2023/09/12 09:20:30;;;;;;;12.13;5.85;;;;;;;;;;5058490;28;20043;-66
2023/09/12 09:23:06;;;;;;;28.10;5.93;;;;;;;;;;5065752;28;20100;-67
2023/09/12 09:25:37;;;;;;;21.50;10.70;;;;;;;;;;5054147;28;20074;-66
2023/09/12 09:28:04;;;;;;;11.43;5.60;;;;;;;;;;5054041;28;20082;-66
2023/09/12 09:30:44;;;;;;;16.77;6.72;;;;;;;;;;5054088;28;20021;-65
2023/09/12 09:33:11;;;;;;;15.05;6.18;;;;;;;;;;5054117;28;20025;-66
2023/09/12 09:35:37;;;;;;;17.13;6.40;;;;;;;;;;5053894;28;20025;-65
2023/09/12 09:38:06;;;;;;;15.10;6.10;;;;;;;;;;5052242;28;20036;-67
2023/09/12 09:40:33;;;;;;;15.13;5.95;;;;;;;;;;5053817;28;20536;-67
2023/09/12 09:43:00;;;;;;;17.30;6.13;;;;;;;;;;5053801;28;20021;-67
2023/09/12 09:45:26;;;;;;;17.17;5.63;;;;;;;;;;5053784;28;20391;-66
2023/09/12 09:47:52;;;;;;;14.82;5.43;;;;;;;;;;5053780;28;20107;-66
2023/09/12 09:50:18;;;;;;;9.73;5.63;;;;;;;;;;5053371;28;20115;-67
2023/09/12 09:52:44;;;;;;;15.10;5.47;;;;;;;;;;5053344;28;20029;-67
2023/09/12 09:55:15;;;;;;;11.40;5.43;;;;;;;;;;5053599;28;20029;-66
2023/09/12 09:57:41;;;;;;;13.95;5.80;;;;;;;;;;5053579;28;20029;-66
2023/09/12 10:00:08;;;;;;;13.10;5.90;;;;;;;;;;5053411;28;20519;-66
2023/09/12 10:02:35;;;;;;;11.98;5.32;;;;;;;;;;5052130;28;20041;-66
2023/09/12 10:05:05;;;;;;;10.77;5.60;;;;;;;;;;5053305;28;20047;-66
2023/09/12 10:07:33;;;;;;;13.38;5.57;;;;;;;;;;5053106;28;20488;-67
2023/09/12 10:10:03;;;;;;;12.23;5.57;;;;;;;;;;5053188;28;20429;-66
2023/09/12 10:12:31;;;;;;;10.30;5.20;;;;;;;;;;5053253;28;20033;-66
2023/09/12 10:15:00;;;;;;;13.18;4.88;;;;;;;;;;5053294;28;20493;-65
2023/09/12 10:17:34;;;;;;;11.35;4.88;;;;;;;;;;5053077;28;20043;-65
2023/09/12 10:20:09;;;;;;;17.70;5.40;;;;;;;;;;5052696;28;20024;-66
2023/09/12 10:22:39;;;;;;;9.02;5.20;;;;;;;;;;5050388;28;20090;-67
2023/09/12 10:25:05;;;;;;;12.68;4.90;;;;;;;;;;5033196;28;20053;-65
2023/09/12 10:27:32;;;;;;;12.77;4.70;;;;;;;;;;5032864;28;20036;-66
2023/09/12 10:29:59;;;;;;;16.83;5.18;;;;;;;;;;5032292;28;20029;-67
2023/09/12 10:32:29;;;;;;;11.30;4.82;;;;;;;;;;5032929;28;20452;-65
2023/09/12 10:34:58;;;;;;;11.73;4.75;;;;;;;;;;5032760;28;20438;-66
2023/09/12 10:37:25;;;;;;;12.18;4.70;;;;;;;;;;5050498;28;20120;-66
2023/09/12 10:39:53;;;;;;;12.50;4.28;;;;;;;;;;5052802;28;20037;-67
2023/09/12 10:42:20;;;;;;;18.38;4.55;;;;;;;;;;5052598;28;20442;-66
2023/09/12 10:44:46;;;;;;;14.40;4.57;;;;;;;;;;5052374;28;20029;-67
2023/09/12 10:47:13;;;;;;;14.93;4.70;;;;;;;;;;5052722;28;20108;-67
2023/09/12 10:49:39;;;;;;;14.90;4.45;;;;;;;;;;5052246;28;20029;-67
2023/09/12 10:52:05;;;;;;;16.55;4.20;;;;;;;;;;5052508;28;20110;-67
2023/09/12 10:54:39;;;;;;;13.60;4.50;;;;;;;;;;5051221;28;20029;-67
2023/09/12 10:57:16;;;;;;;13.07;4.13;;;;;;;;;;5052665;28;20082;-66
2023/09/12 10:59:59;;;;;;;14.73;4.28;;;;;;;;;;5052420;28;20102;-66
2023/09/12 11:02:36;;;;;;;16.73;4.18;;;;;;;;;;5052279;28;20482;-68
2023/09/12 11:05:07;;;;;;;12.35;3.72;;;;;;;;;;5052219;28;20135;-67
2023/09/12 11:07:38;;;;;;;13.20;4.28;;;;;;;;;;5051790;28;20466;-67
2023/09/12 11:10:12;;;;;;;12.25;4.20;;;;;;;;;;5051953;28;20037;-67
2023/09/12 11:12:38;;;;;;;18.95;4.93;;;;;;;;;;5050452;28;20534;-67
2023/09/12 11:15:05;;;;;;;13.95;3.75;;;;;;;;;;5052296;28;20116;-68
2023/09/12 11:17:44;;;;;;;15.25;4.72;;;;;;;;;;5052226;28;20421;-66
2023/09/12 11:20:10;;;;;;;16.48;4.63;;;;;;;;;;5051952;28;20028;-64
2023/09/12 11:22:45;;;;;;;13.63;4.45;;;;;;;;;;5052144;28;20091;-64
2023/09/12 11:25:26;;;;;;;23.20;4.78;;;;;;;;;;5032447;28;20033;-64
2023/09/12 11:27:52;;;;;;;17.90;4.10;;;;;;;;;;5032252;28;20080;-65
2023/09/12 11:30:17;;;;;;;14.60;4.30;;;;;;;;;;5032287;28;20405;-64
2023/09/12 11:32:45;;;;;;;18.08;4.47;;;;;;;;;;5031916;28;20093;-64
2023/09/12 11:35:11;;;;;;;14.83;4.80;;;;;;;;;;5032351;28;20030;-65
2023/09/12 11:37:37;;;;;;;12.57;4.75;;;;;;;;;;5051424;28;20516;-67
2023/09/12 11:40:17;;;;;;;14.77;4.50;;;;;;;;;;5052115;28;20027;-65
2023/09/12 11:42:43;;;;;;;17.17;4.38;;;;;;;;;;5055006;28;20474;-66
2023/09/12 11:45:10;;;;;;;20.40;4.95;;;;;;;;;;5056103;28;20470;-66
2023/09/12 11:47:45;;;;;;;15.23;4.53;;;;;;;;;;5054830;28;20029;-67
2023/09/12 11:50:38;;;;;;;18.73;4.18;;;;;;;;;;5055692;28;20021;-66
2023/09/12 11:53:06;;;;;;;16.88;4.50;;;;;;;;;;5054180;28;20110;-66
2023/09/12 11:55:37;;;;;;;16.00;5.00;;;;;;;;;;5055018;28;20074;-67
2023/09/12 11:58:04;;;;;;;21.08;5.22;;;;;;;;;;5055797;28;20093;-67
2023/09/12 12:00:29;;;;;;;17.95;5.00;;;;;;;;;;5055910;28;20458;-67
2023/09/12 12:02:55;;;;;;;17.23;4.72;;;;;;;;;;5055368;28;20037;-65
2023/09/12 12:05:22;;;;;;;15.10;4.40;;;;;;;;;;5055584;28;20488;-65
2023/09/12 12:07:49;;;;;;;18.35;4.90;;;;;;;;;;5055415;28;20090;-67
2023/09/12 12:10:15;;;;;;;17.40;5.50;;;;;;;;;;5055594;28;20025;-67
2023/09/12 12:12:43;;;;;;;17.17;4.72;;;;;;;;;;5055637;28;20108;-65
2023/09/12 12:15:13;;;;;;;17.50;5.45;;;;;;;;;;5055523;28;20162;-64
2023/09/12 12:17:41;;;;;;;17.33;4.95;;;;;;;;;;5055076;28;20028;-66
2023/09/12 12:20:10;;;;;;;13.65;5.00;;;;;;;;;;5055186;28;20067;-64
2023/09/12 12:22:39;;;;;;;15.35;4.78;;;;;;;;;;5055217;28;20033;-64
2023/09/12 12:25:11;;;;;;;16.40;5.43;;;;;;;;;;5035356;28;20479;-64
2023/09/12 12:27:40;;;;;;;12.63;4.80;;;;;;;;;;5035068;28;20052;-65
2023/09/12 12:30:10;;;;;;;10.83;5.00;;;;;;;;;;5051995;28;20039;-65
2023/09/12 12:32:43;;;;;;;16.25;5.43;;;;;;;;;;5050873;28;20041;-65
2023/09/12 12:35:18;;;;;;;13.88;4.93;;;;;;;;;;5053997;28;20466;-66
2023/09/12 12:37:44;;;;;;;10.80;5.30;;;;;;;;;;5050840;28;20124;-66
2023/09/12 12:40:13;;;;;;;14.63;4.97;;;;;;;;;;5054548;28;20482;-67
2023/09/12 12:42:41;;;;;;;18.53;5.97;;;;;;;;;;5053343;28;20029;-67
2023/09/12 12:45:18;;;;;;;15.43;5.43;;;;;;;;;;5054907;28;20501;-67
2023/09/12 12:47:44;;;;;;;14.07;5.25;;;;;;;;;;5053266;28;20048;-66
2023/09/12 12:50:14;;;;;;;21.50;5.65;;;;;;;;;;5054271;28;20056;-67
2023/09/12 12:52:40;;;;;;;18.58;5.50;;;;;;;;;;5052423;28;20112;-64
2023/09/12 12:55:09;;;;;;;15.75;5.10;;;;;;;;;;5054715;28;20386;-67
2023/09/12 12:57:38;;;;;;;17.73;6.25;;;;;;;;;;5054659;28;20033;-64
2023/09/12 13:00:10;;;;;;;17.30;5.55;;;;;;;;;;5054412;28;20051;-66
2023/09/12 13:02:36;;;;;;;20.13;5.40;;;;;;;;;;5054417;28;20037;-65
2023/09/12 13:05:01;;;;;;;15.60;5.82;;;;;;;;;;5054412;28;20029;-64
2023/09/12 13:07:27;;;;;;;21.83;5.60;;;;;;;;;;5054417;28;20064;-64
2023/09/12 13:09:52;;;;;;;19.02;5.68;;;;;;;;;;5054553;28;20021;-65
2023/09/12 13:12:18;;;;;;;21.08;5.63;;;;;;;;;;5052936;28;20095;-65
2023/09/12 13:14:44;;;;;;;16.05;5.60;;;;;;;;;;5054047;28;20178;-65
2023/09/12 13:17:09;;;;;;;22.90;5.97;;;;;;;;;;5054206;28;20040;-64
2023/09/12 13:19:35;;;;;;;17.85;5.57;;;;;;;;;;5054162;28;20033;-64
2023/09/12 13:22:01;;;;;;;13.02;5.72;;;;;;;;;;5054163;28;20033;-64
2023/09/12 13:24:26;;;;;;;15.60;5.13;;;;;;;;;;5054159;28;20033;-64
2023/09/12 13:26:53;;;;;;;14.43;5.38;;;;;;;;;;5054198;28;20017;-64
2023/09/12 13:29:19;;;;;;;20.92;6.28;;;;;;;;;;5053883;28;20033;-64
2023/09/12 13:31:44;;;;;;;19.63;6.45;;;;;;;;;;5054175;28;20054;-64
2023/09/12 13:34:10;;;;;;;15.55;5.88;;;;;;;;;;5054045;28;20032;-64
2023/09/12 13:36:36;;;;;;;13.32;5.72;;;;;;;;;;5053563;28;20029;-64
2023/09/12 13:39:02;;;;;;;17.95;5.43;;;;;;;;;;5053880;28;20060;-65
2023/09/12 13:41:27;;;;;;;10.65;5.82;;;;;;;;;;5039832;28;20501;-64
2023/09/12 13:43:53;;;;;;;16.15;6.55;;;;;;;;;;5032144;28;20030;-65
2023/09/12 13:46:18;;;;;;;13.50;5.90;;;;;;;;;;5033729;28;20087;-64
2023/09/12 13:48:44;;;;;;;19.23;6.18;;;;;;;;;;5033755;28;20029;-65
2023/09/12 13:51:09;;;;;;;16.70;6.10;;;;;;;;;;5033573;28;20099;-64
2023/09/12 13:53:35;;;;;;;12.80;6.05;;;;;;;;;;5033535;28;20119;-64
2023/09/12 13:56:01;;;;;;;17.38;6.80;;;;;;;;;;5033786;28;20048;-65
2023/09/12 13:58:27;;;;;;;16.73;6.20;;;;;;;;;;5033413;28;20112;-65
2023/09/12 14:00:52;;;;;;;12.07;6.03;;;;;;;;;;5031921;28;20586;-66
2023/09/12 14:03:18;;;;;;;13.55;6.60;;;;;;;;;;5033321;28;20057;-67
2023/09/12 14:05:43;;;;;;;18.15;5.68;;;;;;;;;;5033538;28;20029;-66
2023/09/12 14:08:09;;;;;;;14.85;6.13;;;;;;;;;;5033361;28;20471;-66
2023/09/12 14:10:35;;;;;;;13.75;5.60;;;;;;;;;;5051802;28;20226;-66
2023/09/12 14:13:01;;;;;;;17.13;5.65;;;;;;;;;;5052941;28;20056;-66
2023/09/12 14:15:26;;;;;;;11.93;5.35;;;;;;;;;;5053029;28;20474;-68
2023/09/12 14:17:52;;;;;;;15.25;5.90;;;;;;;;;;5053202;28;20027;-68
2023/09/12 14:20:17;;;;;;;13.38;6.00;;;;;;;;;;5052941;28;20044;-67
2023/09/12 14:22:43;;;;;;;16.38;5.53;;;;;;;;;;5052543;28;20028;-66
2023/09/12 14:25:14;;;;;;;15.77;6.25;;;;;;;;;;5053075;28;20061;-68